createdAt,value
2022-12-05T00:12:38.242Z,100355.94
2022-12-05T00:19:26.514Z,100370.41
2022-12-05T00:26:12.349Z,100374.53
2022-12-05T00:32:58.089Z,100393.31
2022-12-05T00:39:46.620Z,100394.13
2022-12-05T00:46:35.119Z,100383.19
2022-12-05T00:53:21.103Z,100394.09
2022-12-05T01:00:11.469Z,100394.63
2022-12-05T01:07:00.052Z,100396.78
2022-12-05T01:13:46.284Z,100399.81
2022-12-05T01:20:34.337Z,100419.72
2022-12-05T01:27:19.907Z,100436.06
2022-12-05T01:34:08.597Z,100436.06
2022-12-05T01:41:05.005Z,100437.69
2022-12-05T01:47:50.832Z,100424.59
2022-12-05T01:54:38.837Z,100435.81
2022-12-05T02:01:26.967Z,100433.63
2022-12-05T02:08:14.699Z,100433.66
2022-12-05T02:15:13.559Z,100424.09
2022-12-05T02:22:50.405Z,100434.16
2022-12-05T02:29:57.996Z,100427.94
2022-12-05T02:36:48.950Z,100445.94
2022-12-05T02:43:40.110Z,100441.03
2022-12-05T02:50:35.534Z,100454.38
2022-12-05T02:57:22.688Z,100458.16
2022-12-05T03:04:09.886Z,100478.09
2022-12-05T03:11:00.030Z,100461.19
2022-12-05T03:17:54.435Z,100472.88
2022-12-05T03:24:44.061Z,100494.19
2022-12-05T03:31:43.501Z,100497.72
2022-12-05T03:38:35.639Z,100486.28
2022-12-05T04:06:14.022Z,100506.47
2022-12-05T04:13:17.937Z,100511.16
2022-12-05T04:20:21.043Z,100502.44
2022-12-05T04:27:25.907Z,100526.78
2022-12-05T04:34:15.749Z,100506.38
2022-12-05T04:41:06.338Z,100553.03
2022-12-05T04:47:58.718Z,100506.66
2022-12-05T04:54:49.251Z,100543.75
2022-12-05T05:01:40.613Z,100538.31
2022-12-05T05:08:30.824Z,100536.94
2022-12-05T05:15:16.403Z,100530.31
2022-12-05T05:22:01.920Z,100520.25
2022-12-05T05:28:50.544Z,100500.03
2022-12-05T05:35:39.722Z,100520.75
2022-12-05T05:42:25.300Z,100530.84
2022-12-05T05:49:14.192Z,100534.13
2022-12-05T05:55:59.699Z,100536.59
2022-12-05T06:02:45.436Z,100563.31
2022-12-05T06:09:33.514Z,100558.97
2022-12-05T06:16:23.792Z,100558.41
2022-12-05T06:23:09.298Z,100568.81
2022-12-05T06:29:57.482Z,100569.94
2022-12-05T06:36:43.086Z,100582.75
2022-12-05T06:43:28.581Z,100595.06
2022-12-05T06:50:16.639Z,100601.09
2022-12-05T06:57:02.155Z,100600.56
2022-12-05T07:03:48.914Z,100601.38
2022-12-05T07:10:37.096Z,100597.53
2022-12-05T07:17:23.503Z,100550.88
2022-12-05T07:24:09.597Z,100626.19
2022-12-05T07:31:06.536Z,100622.06
2022-12-05T07:37:51.962Z,100632.44
2022-12-05T07:44:37.648Z,100631.09
2022-12-05T07:51:25.649Z,100638.47
2022-12-05T07:58:11.077Z,100651.53
2022-12-05T08:04:56.435Z,100663.53
2022-12-05T08:11:48.292Z,100664.91
2022-12-05T08:18:36.700Z,100659.44
2022-12-05T08:25:22.242Z,100665.72
2022-12-05T08:32:10.269Z,100673.91
2022-12-05T08:39:00.400Z,100686.72
2022-12-05T08:45:53.643Z,100698.75
2022-12-05T08:52:41.652Z,100703.66
2022-12-05T08:59:27.104Z,100700.97
2022-12-05T09:06:15.790Z,100717.31
2022-12-05T09:13:03.877Z,100713.78
2022-12-05T09:19:49.499Z,100728.81
2022-12-05T09:26:34.992Z,100729.06
2022-12-05T09:33:23.200Z,100721.16
2022-12-05T09:40:12.984Z,100718.94
2022-12-05T09:47:02.831Z,100730.13
2022-12-05T09:53:51.123Z,100727.41
2022-12-05T10:00:37.472Z,100722.19
2022-12-05T10:07:30.273Z,100719.19
2022-12-05T10:14:34.171Z,100728.72
2022-12-05T10:21:25.860Z,100723.78
2022-12-05T10:28:26.753Z,100717.25
2022-12-05T10:35:24.251Z,100708.47
2022-12-05T10:42:12.603Z,100719.41
2022-12-05T10:48:58.517Z,100719.69
2022-12-05T10:56:28.140Z,100711.22
2022-12-05T11:02:56.545Z,100708.81
2022-12-05T11:09:42.484Z,100716.81
2022-12-05T11:16:35.568Z,100713.88
2022-12-05T11:23:29.918Z,100720.72
2022-12-05T11:30:23.005Z,100722.63
2022-12-05T11:37:17.721Z,100716.06
2022-12-05T11:44:39.833Z,100713.63
2022-12-05T11:51:40.468Z,100702.13
2022-12-05T11:58:59.713Z,100709.16
2022-12-05T12:05:57.519Z,100709.44
2022-12-05T12:12:58.362Z,100713.28
2022-12-05T12:20:10.571Z,100713.81
2022-12-05T12:27:08.547Z,100725.56
2022-12-05T12:34:02.465Z,100726.94
2022-12-05T12:40:54.356Z,100710.84
2022-12-05T12:47:53.870Z,100703.19
2022-12-05T12:55:04.310Z,100697.41
2022-12-05T13:01:58.712Z,100701.50
2022-12-05T13:08:51.683Z,100709.13
2022-12-05T13:15:41.688Z,100699.84
2022-12-05T13:22:32.138Z,100703.94
2022-12-05T13:29:25.397Z,100700.91
2022-12-05T13:36:27.688Z,100705.75
2022-12-05T13:43:19.330Z,100694.31
2022-12-05T13:50:13.268Z,100699.47
2022-12-05T13:57:02.758Z,100697.00
2022-12-05T14:04:03.599Z,100719.13
2022-12-05T14:11:14.155Z,100717.75
2022-12-05T14:18:08.279Z,100725.91
2022-12-05T14:25:06.729Z,100719.34
2022-12-05T14:32:13.835Z,100729.19
2022-12-05T14:38:59.500Z,100730.78
2022-12-05T14:46:02.339Z,100732.41
2022-12-05T14:52:48.770Z,100723.13
2022-12-05T14:59:42.172Z,100714.09
2022-12-05T15:06:30.669Z,100728.31
2022-12-05T15:13:20.571Z,100739.19
2022-12-05T15:20:11.401Z,100695.56
2022-12-05T15:27:01.710Z,100743.34
2022-12-05T15:33:54.861Z,100738.97
2022-12-05T15:40:40.659Z,100754.31
2022-12-05T15:47:29.845Z,100746.91
2022-12-05T15:54:22.616Z,100748.97
2022-12-05T16:01:19.199Z,100747.09
2022-12-05T16:08:08.710Z,100740.38
2022-12-05T16:15:00.075Z,100741.69
2022-12-05T16:21:50.909Z,100748.66
2022-12-05T16:28:39.260Z,100752.28
2022-12-05T16:35:42.578Z,100736.19
2022-12-05T16:42:29.596Z,100754.22
2022-12-05T16:49:46.382Z,100768.28
2022-12-05T16:56:34.961Z,100767.44
2022-12-05T17:03:36.456Z,100769.13
2022-12-05T17:10:25.808Z,100776.28
2022-12-05T17:17:18.105Z,100761.59
2022-12-05T17:24:04.268Z,100772.81
2022-12-05T17:30:52.823Z,100790.59
2022-12-05T17:37:38.300Z,100797.44
2022-12-05T17:44:23.703Z,100801.84
2022-12-05T17:51:14.596Z,100803.22
2022-12-05T17:58:00.263Z,100799.41
2022-12-05T18:04:45.922Z,100801.63
2022-12-05T18:11:34.059Z,100804.34
2022-12-05T18:18:21.611Z,100740.16
2022-12-05T18:25:08.788Z,100812.78
2022-12-05T18:31:56.937Z,100808.69
2022-12-05T18:38:43.387Z,100791.44
2022-12-05T18:45:29.070Z,100808.84
2022-12-05T18:52:17.156Z,100706.47
2022-12-05T18:59:05.598Z,100791.34
2022-12-05T19:05:50.968Z,100796.28
2022-12-05T19:12:39.338Z,100799.28
2022-12-05T19:19:25.698Z,100797.31
2022-12-05T19:26:13.400Z,100788.88
2022-12-05T19:33:01.985Z,100817.34
2022-12-05T19:39:48.133Z,100812.69
2022-12-05T19:46:34.598Z,100809.13
2022-12-05T19:53:22.580Z,100800.13
2022-12-05T20:00:11.491Z,100802.88
2022-12-05T20:06:59.929Z,100816.53
2022-12-05T20:13:48.801Z,100806.47
2022-12-05T20:20:34.245Z,100818.75
2022-12-05T20:27:19.674Z,100801.25
2022-12-05T20:34:08.420Z,100796.06
2022-12-05T20:40:53.877Z,100798.75
2022-12-05T20:47:39.516Z,100812.13
2022-12-05T20:54:27.794Z,100805.84
2022-12-05T21:01:16.372Z,100809.69
2022-12-05T21:08:01.917Z,100805.84
2022-12-05T21:14:50.791Z,100808.88
2022-12-05T21:21:36.318Z,100808.06
2022-12-05T21:28:21.906Z,100793.91
2022-12-05T21:35:11.413Z,100798.84
2022-12-05T21:41:58.204Z,100796.66
2022-12-05T21:48:43.577Z,100801.34
2022-12-05T21:55:31.478Z,100802.44
2022-12-05T22:02:17.069Z,100802.19
2022-12-05T22:09:02.795Z,100795.59
2022-12-05T22:15:51.274Z,100802.72
2022-12-05T22:22:38.955Z,100813.09
2022-12-05T22:29:24.378Z,100800.25
2022-12-05T22:36:15.166Z,100806.53
2022-12-05T22:43:00.575Z,100813.63
2022-12-05T22:49:46.250Z,100790.09
2022-12-05T22:56:34.743Z,100802.66
2022-12-05T23:03:20.288Z,100789.22
2022-12-05T23:10:07.203Z,100777.97
2022-12-05T23:16:55.057Z,100782.72
2022-12-05T23:23:40.902Z,100779.28
2022-12-05T23:30:26.375Z,100751.16
2022-12-05T23:37:14.364Z,100764.88
2022-12-05T23:44:02.024Z,100694.19
2022-12-05T23:50:47.376Z,100780.72
2022-12-05T23:57:35.681Z,100768.13
